Detall de PIREP

Printer-friendly versionPDF version

[2011/04/29 22:42:00]
Flight IATA:CT3110
Pilot Number:026
Company ICAO:CAT
Aircraft Type:DC85/A
PAX:132
Departing Airport: LEBL
Destination Airport: LEPA
Alternate Airport:LEMH
Online: VATSIM
Route:LARPA B31 TOLSO
Flight Level:F130
No Slew and time accel
No pause
Crash detect
Detect pilot in Cockpit between each 30 and 45 minutes
22:42 Zero fuel Weight: 178859 Lbs, Fuel Weight: 24001 Lbs
22:42 VATSIM:LEBL 292230Z 01005KT 350V050 9999 FEW015 14/10 Q1003 NOSIG
22:42 VATSIM:LEPA 292230Z 05011KT 020V090 9999 FEW025 17/13 Q1000 NOSIG
22:42 VOICE CATALONIAN / INTERHUB ROUTE CT3110
22:50 Parking Brakes off
23:00 Take-off
23:00 Take off Weight: 201812 Lbs
23:00 Wind: 001º @ 006 Knots Heading: 063º
23:00 POS N41º 17´ 22´´ E002º 05´ 44´´
23:00 Flaps:3 at 161 Knots
23:00 Gear Up: 164 Knots
23:01 Flaps:2 at 191 Knots
23:02 Flaps:1 at 196 Knots
23:02 Flaps:0 at 196 Knots
23:04 TOC
23:04 Fuel Weight: 21122 Lb
23:15 Wind:028º@017 Knots Heading: 154º Ground Speed: 405 Knots Altitude 12972 ft
23:16 TOD
23:16 Fuel Weight: 18460 Lb
23:26 Flaps:1 at 211 Knots
23:26 Gear Down: 199 Knots
23:27 Flaps:2 at 130 Knots
23:28 Flaps:3 at 150 Knots
23:29 Flaps:4 at 162 Knots
23:30 Wind:078º@007 Knots Heading: 059º Ground Speed: 138 Knots Altitude 561 ft
23:30 Flaps:5 at 135 Knots
23:31 TouchDown:Rate -136 ft/min Speed: 121 Knots
23:31 VATSIM:LEPA 292300Z 07007KT 050V110 9999 FEW025 17/12 Q1000 NOSIG
23:31 Land
23:31 Wind:072º@007 Knots
23:31 Heading: 059º
23:31 Flight Duration: 00:31
23:31 Landing Weight: 195867 Lbs
23:31 POS N39º 33´ 14´´ E002º 43´ 32´´
23:38 Parking brakes on
23:38 Block to Block Duration: 00:48
23:38 Final Fuel: 16298 Lbls
23:38 Spent Fuel: 7702 Lbls
23:38 Flight Length: 158 NM
23:38 TOD Land Length: 63 NM

Exportar CSV

Powered by Drupal - Modified by Danger4k